createdAt,value
2023-01-21T00:00:51.781Z,39.1
2023-01-21T00:05:53.968Z,40.4
2023-01-21T00:10:56.249Z,41
2023-01-21T00:15:58.416Z,41.1
2023-01-21T00:21:01.180Z,43.5
2023-01-21T00:26:03.446Z,42.4
2023-01-21T00:31:05.671Z,39
2023-01-21T00:36:08.642Z,40.9
2023-01-21T00:41:10.666Z,39.9
2023-01-21T00:46:13.010Z,39.1
2023-01-21T00:51:15.652Z,36.3
2023-01-21T00:56:17.882Z,37.8
2023-01-21T01:01:20.872Z,38.4
2023-01-21T01:06:23.144Z,37.3
2023-01-21T01:11:25.256Z,35.4
2023-01-21T01:16:27.177Z,38.1
2023-01-21T01:21:29.162Z,35.7
2023-01-21T01:26:31.191Z,37.1
2023-01-21T01:31:33.287Z,37.1
2023-01-21T01:36:35.621Z,35
2023-01-21T01:41:37.556Z,38
2023-01-21T01:46:39.617Z,35.6
2023-01-21T01:51:42.009Z,38.5
2023-01-21T01:56:46.380Z,34.8
2023-01-21T02:01:48.634Z,37.6
2023-01-21T02:06:51.169Z,35.6
2023-01-21T02:11:53.369Z,37.1
2023-01-21T02:16:55.338Z,38.2
2023-01-21T02:21:57.565Z,40
2023-01-21T02:26:59.553Z,40.8
2023-01-21T02:32:01.749Z,42.7
2023-01-21T02:37:04.211Z,40.6
2023-01-21T02:42:06.398Z,37.5
2023-01-21T02:47:08.537Z,41
2023-01-21T02:52:10.605Z,39.6
2023-01-21T02:57:12.528Z,38.6
2023-01-21T03:02:14.762Z,37.8
2023-01-21T03:07:17.035Z,40
2023-01-21T03:12:19.079Z,38.4
2023-01-21T03:17:24.126Z,36.9
2023-01-21T03:22:26.212Z,36.2
2023-01-21T03:27:28.175Z,66.2
2023-01-21T03:32:28.613Z,36.5
2023-01-21T03:37:31.112Z,39.1
2023-01-21T03:42:33.133Z,79.4
2023-01-21T03:47:36.229Z,38.6
2023-01-21T03:52:38.206Z,36.6
2023-01-21T03:57:40.285Z,42.8
2023-01-21T04:02:42.439Z,36.2
2023-01-21T04:07:44.419Z,38.6
2023-01-21T04:12:46.770Z,39.4
2023-01-21T04:17:49.170Z,38.8
2023-01-21T04:22:51.120Z,37.8
2023-01-21T04:27:53.110Z,38.6
2023-01-21T04:32:55.312Z,34.3
2023-01-21T04:37:57.264Z,36.7
2023-01-21T04:42:59.252Z,34.7
2023-01-21T04:48:04.624Z,33.8
2023-01-21T04:53:06.912Z,36.4
2023-01-21T04:58:09.239Z,77.7
2023-01-21T05:03:11.505Z,35
2023-01-21T05:08:13.523Z,37.9
2023-01-21T05:13:15.707Z,35.5
2023-01-21T05:18:17.793Z,36.9
2023-01-21T05:23:20.132Z,36.3
2023-01-21T05:28:22.258Z,33.5
2023-01-21T05:33:24.305Z,33.9
2023-01-21T05:38:26.342Z,37.1
2023-01-21T05:43:28.334Z,36.7
2023-01-21T05:48:31.007Z,36
2023-01-21T05:53:33.000Z,37.5
2023-01-21T05:58:35.008Z,39.7
2023-01-21T06:03:37.813Z,38
2023-01-21T06:08:38.579Z,36.7
2023-01-21T06:13:40.894Z,38.4
2023-01-21T06:18:42.893Z,38.5
2023-01-21T06:23:44.989Z,40.4
2023-01-21T06:28:47.027Z,42.4
2023-01-21T06:33:48.986Z,42.5
2023-01-21T06:38:50.954Z,43.7
2023-01-21T06:43:53.990Z,41.7
2023-01-21T06:48:56.219Z,41.6
2023-01-21T06:53:58.247Z,43.2
2023-01-21T06:59:00.611Z,40.8
2023-01-21T07:04:02.646Z,39.7
2023-01-21T07:09:06.041Z,45.8
2023-01-21T07:14:11.567Z,38.9
2023-01-21T07:19:15.325Z,37.8
2023-01-21T07:24:17.419Z,37.9
2023-01-21T07:29:20.483Z,36.7
2023-01-21T07:34:26.091Z,34.9
2023-01-21T07:39:28.527Z,38.5
2023-01-21T07:44:31.346Z,36.9
2023-01-21T07:49:35.887Z,38.3
2023-01-21T07:54:38.144Z,44.1
2023-01-21T07:59:40.354Z,37.1
2023-01-21T08:04:43.462Z,37.3
2023-01-21T08:09:45.871Z,64.5
2023-01-21T08:14:46.499Z,36.9
2023-01-21T08:19:48.768Z,37.8
2023-01-21T08:24:50.911Z,40.9
2023-01-21T08:29:53.118Z,41.1
2023-01-21T08:34:56.596Z,78.3
2023-01-21T08:45:06.173Z,44.8
2023-01-21T08:55:14.435Z,38
2023-01-21T09:00:17.972Z,35.2
2023-01-21T09:05:20.253Z,52.2
2023-01-21T09:10:22.513Z,36.6
2023-01-21T09:15:28.344Z,28.8
2023-01-21T09:20:30.647Z,29.4
2023-01-21T09:25:32.914Z,26.6
2023-01-21T09:30:35.497Z,23.9
2023-01-21T09:35:37.808Z,23.4
2023-01-21T09:40:40.004Z,22.2
2023-01-21T09:45:42.227Z,20.3
2023-01-21T09:50:44.400Z,18.2
2023-01-21T09:55:46.629Z,17.4
2023-01-21T10:00:48.824Z,15.8
2023-01-21T10:05:51.457Z,14.6
2023-01-21T10:10:53.817Z,14.8
2023-01-21T10:15:56.234Z,17.1
2023-01-21T10:20:58.811Z,12.5
2023-01-21T10:26:01.156Z,13
2023-01-21T10:31:03.747Z,10.2
2023-01-21T10:36:06.524Z,8
2023-01-21T10:41:09.022Z,7.7
2023-01-21T10:46:11.904Z,6.8
2023-01-21T10:51:14.812Z,8.3
2023-01-21T10:56:18.283Z,7.2
2023-01-21T11:01:21.227Z,7.1
2023-01-21T11:06:23.533Z,7.9
2023-01-21T11:11:26.096Z,9
2023-01-21T11:16:29.003Z,9.5
2023-01-21T11:21:31.217Z,8.9
2023-01-21T11:26:33.802Z,9
2023-01-21T11:31:36.698Z,14.2
2023-01-21T11:36:40.371Z,9.3
2023-01-21T11:41:43.168Z,9.8
2023-01-21T11:46:45.665Z,10.1
2023-01-21T11:51:48.004Z,9.9
2023-01-21T11:56:50.945Z,9
2023-01-21T12:01:53.931Z,10
2023-01-21T12:06:56.093Z,9.9
2023-01-21T12:11:58.166Z,9.4
2023-01-21T12:17:00.665Z,9.9
2023-01-21T12:22:02.804Z,8.4
2023-01-21T12:27:04.836Z,8.5
2023-01-21T12:32:06.856Z,8.7
2023-01-21T12:37:09.124Z,6.5
2023-01-21T12:42:11.207Z,9.4
2023-01-21T12:47:13.215Z,7.2
2023-01-21T12:52:15.181Z,7.2
2023-01-21T12:57:17.226Z,9.3
2023-01-21T13:02:19.271Z,7.1
2023-01-21T13:07:21.638Z,6.8
2023-01-21T13:12:23.679Z,7.8
2023-01-21T13:17:25.845Z,6.8
2023-01-21T13:22:27.906Z,7.6
2023-01-21T13:27:29.910Z,8.8
2023-01-21T13:32:32.031Z,8.3
2023-01-21T13:37:34.113Z,8
2023-01-21T13:42:36.166Z,8.9
2023-01-21T13:47:38.314Z,9.3
2023-01-21T13:52:40.233Z,8.1
2023-01-21T13:57:42.367Z,10.9
2023-01-21T14:02:45.838Z,7.2
2023-01-21T14:07:47.878Z,6.9
2023-01-21T14:12:50.179Z,7.1
2023-01-21T14:17:52.786Z,7.7
2023-01-21T14:22:55.152Z,7.7
2023-01-21T14:27:57.756Z,7.7
2023-01-21T14:32:59.894Z,8.4
2023-01-21T14:38:02.111Z,9
2023-01-21T14:43:04.246Z,8.4
2023-01-21T14:48:09.025Z,10.2
2023-01-21T14:53:12.053Z,9.4
2023-01-21T14:58:14.111Z,10.4
2023-01-21T15:03:16.340Z,10.5
2023-01-21T15:08:18.354Z,11.5
2023-01-21T15:13:20.366Z,10.9
2023-01-21T15:18:25.348Z,12
2023-01-21T15:23:27.477Z,11
2023-01-21T15:28:29.521Z,12.3
2023-01-21T15:33:31.652Z,12.7
2023-01-21T15:38:33.676Z,13.8
2023-01-21T15:43:35.736Z,14.9
2023-01-21T15:48:41.925Z,14.6
2023-01-21T15:53:44.666Z,18.3
2023-01-21T15:58:48.024Z,17.6
2023-01-21T16:03:50.342Z,18.7
2023-01-21T16:08:52.538Z,19.4
2023-01-21T16:13:54.532Z,18.8
2023-01-21T16:18:56.990Z,19.3
2023-01-21T16:23:59.096Z,22.6
2023-01-21T16:29:01.220Z,25.1
2023-01-21T16:34:03.203Z,25
2023-01-21T16:39:05.727Z,23.1
2023-01-21T16:44:07.799Z,22.4
2023-01-21T16:49:11.379Z,24
2023-01-21T16:54:13.983Z,22.1
2023-01-21T16:59:16.185Z,22.7
2023-01-21T17:04:20.653Z,23.6
2023-01-21T17:09:22.744Z,19.8
2023-01-21T17:14:24.836Z,18.2
2023-01-21T17:19:26.954Z,17.8
2023-01-21T17:24:29.161Z,20.2
2023-01-21T17:29:31.259Z,27.1
2023-01-21T17:34:33.449Z,19
2023-01-21T17:39:35.542Z,19.4
2023-01-21T17:44:37.959Z,18.6
2023-01-21T17:49:39.999Z,13.6
2023-01-21T17:54:42.329Z,12.2
2023-01-21T17:59:45.751Z,12.7
2023-01-21T18:04:48.717Z,13
2023-01-21T18:09:50.933Z,10.9
2023-01-21T18:14:52.935Z,23.1
2023-01-21T18:19:57.738Z,14.2
2023-01-21T18:25:00.016Z,11.5
2023-01-21T18:30:02.128Z,11.2
2023-01-21T18:35:04.267Z,11.1
2023-01-21T18:40:06.878Z,11
2023-01-21T18:45:09.746Z,9.3
2023-01-21T18:50:11.989Z,10
2023-01-21T18:55:14.408Z,11.5
2023-01-21T19:00:18.344Z,9.2
2023-01-21T19:05:21.144Z,10.6
2023-01-21T19:10:24.079Z,12.2
2023-01-21T19:15:26.723Z,13.1
2023-01-21T19:20:29.180Z,11.6
2023-01-21T19:25:32.021Z,13.3
2023-01-21T19:30:34.442Z,12.3
2023-01-21T19:35:36.621Z,12.9
2023-01-21T19:40:39.713Z,12.7
2023-01-21T19:45:41.775Z,13.3
2023-01-21T19:50:43.890Z,13.2
2023-01-21T19:55:46.072Z,12.6
2023-01-21T20:00:48.395Z,14.2
2023-01-21T20:05:51.531Z,12.6
2023-01-21T20:10:53.556Z,13.6
2023-01-21T20:15:55.715Z,13.1
2023-01-21T20:20:58.155Z,12.5
2023-01-21T20:26:00.332Z,13
2023-01-21T20:31:02.507Z,13.3
2023-01-21T20:36:04.765Z,13.6
2023-01-21T20:41:14.365Z,13.6
2023-01-21T20:46:12.216Z,13.4
2023-01-21T20:51:16.149Z,14.1
2023-01-21T20:56:18.987Z,14.6
2023-01-21T21:01:23.002Z,15
2023-01-21T21:06:25.306Z,15
2023-01-21T21:11:27.529Z,14.2
2023-01-21T21:16:29.775Z,14.6
2023-01-21T21:21:32.826Z,13.8
2023-01-21T21:26:34.917Z,14.9
2023-01-21T21:31:43.361Z,15.3
2023-01-21T21:36:48.379Z,14.2
2023-01-21T21:41:50.607Z,15.5
2023-01-21T21:46:52.972Z,15.1
2023-01-21T21:51:55.041Z,14
2023-01-21T21:56:56.996Z,14
2023-01-21T22:01:59.297Z,14.4
2023-01-21T22:07:01.835Z,14.5
2023-01-21T22:12:05.263Z,15.6
2023-01-21T22:17:07.789Z,13.9
2023-01-21T22:22:10.655Z,14.3
2023-01-21T22:27:13.199Z,14
2023-01-21T22:32:15.332Z,13.7
2023-01-21T22:37:17.449Z,13.8
2023-01-21T22:42:19.533Z,12.9
2023-01-21T22:47:21.742Z,13.6
2023-01-21T22:52:24.008Z,13.5
2023-01-21T22:57:29.419Z,12.6
2023-01-21T23:07:49.483Z,12.5
2023-01-21T23:12:45.881Z,12.5
2023-01-21T23:17:49.466Z,10.9
2023-01-21T23:22:51.740Z,12.5
2023-01-21T23:27:55.921Z,10.4
2023-01-21T23:32:58.141Z,11.1
2023-01-21T23:38:00.151Z,11.2
2023-01-21T23:43:02.071Z,11.6
2023-01-21T23:48:04.047Z,11.4
2023-01-21T23:53:06.143Z,11.3
2023-01-21T23:58:08.279Z,11.7
